sensor_id;sensor_type;location;lat;lon;timestamp;P1;durP1;ratioP1;P2;durP2;ratioP2
25443;SDS011;13368;52.346;4.678;2023-03-01T00:00:00;24.8;;;15.4;;
25443;SDS011;13368;52.346;4.678;2023-03-01T00:05:00;27.2;;;15.6;;
25443;SDS011;13368;52.346;4.678;2023-03-01T00:10:00;28.9;;;15.4;;
25443;SDS011;13368;52.346;4.678;2023-03-01T00:15:00;30.1;;;16.9;;
25443;SDS011;13368;52.346;4.678;2023-03-01T00:20:00;26.1;;;15.1;;
25443;SDS011;13368;52.346;4.678;2023-03-01T00:25:00;28.7;;;16.1;;
25443;SDS011;13368;52.346;4.678;2023-03-01T00:30:00;26.6;;;15.9;;
25443;SDS011;13368;52.346;4.678;2023-03-01T00:35:00;30.0;;;16.7;;
25443;SDS011;13368;52.346;4.678;2023-03-01T00:40:00;28.7;;;16.9;;
25443;SDS011;13368;52.346;4.678;2023-03-01T00:45:00;29.4;;;16.7;;
25443;SDS011;13368;52.346;4.678;2023-03-01T00:50:00;28.5;;;16.3;;
25443;SDS011;13368;52.346;4.678;2023-03-01T00:55:00;28.3;;;16.4;;
25443;SDS011;13368;52.346;4.678;2023-03-01T01:00:00;34.0;;;17.2;;
25443;SDS011;13368;52.346;4.678;2023-03-01T01:05:00;30.5;;;17.2;;
25443;SDS011;13368;52.346;4.678;2023-03-01T01:10:00;30.2;;;16.8;;
25443;SDS011;13368;52.346;4.678;2023-03-01T01:15:00;33.6;;;17.1;;
25443;SDS011;13368;52.346;4.678;2023-03-01T01:20:00;31.7;;;17.5;;
25443;SDS011;13368;52.346;4.678;2023-03-01T01:25:00;30.6;;;17.3;;
25443;SDS011;13368;52.346;4.678;2023-03-01T01:30:00;29.1;;;16.6;;
25443;SDS011;13368;52.346;4.678;2023-03-01T01:35:00;34.7;;;17.5;;
25443;SDS011;13368;52.346;4.678;2023-03-01T01:40:00;31.4;;;17.7;;
25443;SDS011;13368;52.346;4.678;2023-03-01T01:50:00;35.5;;;18.2;;
25443;SDS011;13368;52.346;4.678;2023-03-01T01:55:02;32.1;;;17.5;;
25443;SDS011;13368;52.346;4.678;2023-03-01T02:00:03;32.6;;;17.3;;
25443;SDS011;13368;52.346;4.678;2023-03-01T02:05:01;35.1;;;17.3;;
25443;SDS011;13368;52.346;4.678;2023-03-01T02:10:01;33.0;;;17.3;;
25443;SDS011;13368;52.346;4.678;2023-03-01T02:15:00;34.4;;;17.7;;
25443;SDS011;13368;52.346;4.678;2023-03-01T02:20:04;33.1;;;17.4;;
25443;SDS011;13368;52.346;4.678;2023-03-01T02:25:03;35.2;;;18.1;;
25443;SDS011;13368;52.346;4.678;2023-03-01T02:30:00;32.0;;;17.5;;
25443;SDS011;13368;52.346;4.678;2023-03-01T02:35:00;31.6;;;17.4;;
25443;SDS011;13368;52.346;4.678;2023-03-01T02:40:02;33.3;;;17.7;;
25443;SDS011;13368;52.346;4.678;2023-03-01T02:45:00;34.4;;;18.4;;
25443;SDS011;13368;52.346;4.678;2023-03-01T02:50:00;35.7;;;19.2;;
25443;SDS011;13368;52.346;4.678;2023-03-01T02:55:01;39.6;;;19.8;;
25443;SDS011;13368;52.346;4.678;2023-03-01T03:00:03;36.7;;;18.9;;
25443;SDS011;13368;52.346;4.678;2023-03-01T03:05:00;38.3;;;20.2;;
25443;SDS011;13368;52.346;4.678;2023-03-01T03:10:00;37.7;;;19.0;;
25443;SDS011;13368;52.346;4.678;2023-03-01T03:15:00;41.6;;;19.6;;
25443;SDS011;13368;52.346;4.678;2023-03-01T03:20:00;42.8;;;20.6;;
25443;SDS011;13368;52.346;4.678;2023-03-01T03:25:00;38.7;;;19.1;;
25443;SDS011;13368;52.346;4.678;2023-03-01T03:30:00;38.4;;;19.8;;
25443;SDS011;13368;52.346;4.678;2023-03-01T03:35:00;41.5;;;20.8;;
25443;SDS011;13368;52.346;4.678;2023-03-01T03:40:00;49.0;;;21.3;;
25443;SDS011;13368;52.346;4.678;2023-03-01T03:45:00;116.3;;;25.4;;
25443;SDS011;13368;52.346;4.678;2023-03-01T03:50:00;254.0;;;27.7;;
25443;SDS011;13368;52.346;4.678;2023-03-01T03:55:00;190.9;;;25.4;;
25443;SDS011;13368;52.346;4.678;2023-03-01T04:00:01;254.4;;;26.4;;
25443;SDS011;13368;52.346;4.678;2023-03-01T04:05:00;241.4;;;25.4;;
25443;SDS011;13368;52.346;4.678;2023-03-01T04:10:00;98.1;;;20.8;;
25443;SDS011;13368;52.346;4.678;2023-03-01T04:15:00;122.8;;;22.2;;
25443;SDS011;13368;52.346;4.678;2023-03-01T04:20:00;97.8;;;20.7;;
25443;SDS011;13368;52.346;4.678;2023-03-01T04:25:00;157.3;;;23.3;;
25443;SDS011;13368;52.346;4.678;2023-03-01T04:30:00;127.9;;;21.1;;
25443;SDS011;13368;52.346;4.678;2023-03-01T04:35:00;167.3;;;22.6;;
25443;SDS011;13368;52.346;4.678;2023-03-01T04:40:00;210.2;;;23.1;;
25443;SDS011;13368;52.346;4.678;2023-03-01T04:45:00;142.2;;;20.8;;
25443;SDS011;13368;52.346;4.678;2023-03-01T04:50:00;136.1;;;19.0;;
25443;SDS011;13368;52.346;4.678;2023-03-01T04:55:00;76.2;;;18.4;;
25443;SDS011;13368;52.346;4.678;2023-03-01T05:00:00;61.1;;;17.3;;
25443;SDS011;13368;52.346;4.678;2023-03-01T05:05:00;104.8;;;19.3;;
25443;SDS011;13368;52.346;4.678;2023-03-01T05:10:00;134.3;;;20.1;;
25443;SDS011;13368;52.346;4.678;2023-03-01T05:15:00;159.4;;;20.0;;
25443;SDS011;13368;52.346;4.678;2023-03-01T05:20:00;100.1;;;19.5;;
25443;SDS011;13368;52.346;4.678;2023-03-01T05:25:01;118.6;;;19.2;;
25443;SDS011;13368;52.346;4.678;2023-03-01T05:30:00;180.8;;;19.4;;
25443;SDS011;13368;52.346;4.678;2023-03-01T05:35:00;96.2;;;18.1;;
25443;SDS011;13368;52.346;4.678;2023-03-01T05:40:00;98.9;;;17.7;;
25443;SDS011;13368;52.346;4.678;2023-03-01T05:45:00;63.4;;;16.2;;
25443;SDS011;13368;52.346;4.678;2023-03-01T05:50:00;58.7;;;17.8;;
25443;SDS011;13368;52.346;4.678;2023-03-01T05:55:00;120.6;;;21.1;;
25443;SDS011;13368;52.346;4.678;2023-03-01T06:00:00;171.8;;;20.0;;
25443;SDS011;13368;52.346;4.678;2023-03-01T06:05:00;159.6;;;18.8;;
25443;SDS011;13368;52.346;4.678;2023-03-01T06:10:00;82.9;;;17.3;;
25443;SDS011;13368;52.346;4.678;2023-03-01T06:15:00;88.4;;;17.6;;
25443;SDS011;13368;52.346;4.678;2023-03-01T06:20:00;78.0;;;20.2;;
25443;SDS011;13368;52.346;4.678;2023-03-01T06:25:00;101.1;;;19.1;;
25443;SDS011;13368;52.346;4.678;2023-03-01T06:30:00;91.9;;;21.1;;
25443;SDS011;13368;52.346;4.678;2023-03-01T06:35:00;79.2;;;19.9;;
25443;SDS011;13368;52.346;4.678;2023-03-01T06:40:00;76.2;;;20.7;;
25443;SDS011;13368;52.346;4.678;2023-03-01T06:45:00;56.4;;;20.1;;
25443;SDS011;13368;52.346;4.678;2023-03-01T06:50:00;55.0;;;20.8;;
25443;SDS011;13368;52.346;4.678;2023-03-01T06:55:00;52.0;;;19.2;;
25443;SDS011;13368;52.346;4.678;2023-03-01T07:00:00;105.8;;;21.0;;
25443;SDS011;13368;52.346;4.678;2023-03-01T07:05:00;155.8;;;22.2;;
25443;SDS011;13368;52.346;4.678;2023-03-01T07:10:01;89.0;;;21.0;;
25443;SDS011;13368;52.346;4.678;2023-03-01T07:15:00;119.9;;;21.8;;
25443;SDS011;13368;52.346;4.678;2023-03-01T07:20:00;166.4;;;23.0;;
25443;SDS011;13368;52.346;4.678;2023-03-01T07:25:00;143.2;;;23.0;;
25443;SDS011;13368;52.346;4.678;2023-03-01T07:30:00;106.2;;;22.3;;
25443;SDS011;13368;52.346;4.678;2023-03-01T07:35:00;111.8;;;22.5;;
25443;SDS011;13368;52.346;4.678;2023-03-01T07:40:00;92.7;;;22.9;;
25443;SDS011;13368;52.346;4.678;2023-03-01T07:45:00;97.6;;;21.6;;
25443;SDS011;13368;52.346;4.678;2023-03-01T07:50:00;99.1;;;23.1;;
25443;SDS011;13368;52.346;4.678;2023-03-01T07:55:00;120.2;;;22.4;;
25443;SDS011;13368;52.346;4.678;2023-03-01T08:00:00;133.6;;;21.5;;
25443;SDS011;13368;52.346;4.678;2023-03-01T08:05:00;136.6;;;23.2;;
25443;SDS011;13368;52.346;4.678;2023-03-01T08:10:02;209.9;;;25.3;;
25443;SDS011;13368;52.346;4.678;2023-03-01T08:15:00;274.2;;;27.7;;
25443;SDS011;13368;52.346;4.678;2023-03-01T08:20:00;314.0;;;29.1;;
25443;SDS011;13368;52.346;4.678;2023-03-01T08:25:00;310.9;;;30.8;;
25443;SDS011;13368;52.346;4.678;2023-03-01T08:30:00;343.2;;;31.4;;
25443;SDS011;13368;52.346;4.678;2023-03-01T08:35:00;329.4;;;31.5;;
25443;SDS011;13368;52.346;4.678;2023-03-01T08:40:00;240.9;;;28.3;;
25443;SDS011;13368;52.346;4.678;2023-03-01T08:45:00;327.1;;;31.8;;
25443;SDS011;13368;52.346;4.678;2023-03-01T08:50:00;238.5;;;29.1;;
25443;SDS011;13368;52.346;4.678;2023-03-01T08:55:00;213.7;;;28.4;;
25443;SDS011;13368;52.346;4.678;2023-03-01T09:00:00;187.4;;;28.8;;
25443;SDS011;13368;52.346;4.678;2023-03-01T09:05:00;254.0;;;33.3;;
25443;SDS011;13368;52.346;4.678;2023-03-01T09:10:00;200.5;;;33.9;;
25443;SDS011;13368;52.346;4.678;2023-03-01T09:15:00;173.8;;;34.0;;
25443;SDS011;13368;52.346;4.678;2023-03-01T09:20:00;182.0;;;35.2;;
25443;SDS011;13368;52.346;4.678;2023-03-01T09:25:00;135.5;;;35.5;;
25443;SDS011;13368;52.346;4.678;2023-03-01T09:30:00;121.7;;;35.9;;
25443;SDS011;13368;52.346;4.678;2023-03-01T09:35:00;130.2;;;38.0;;
25443;SDS011;13368;52.346;4.678;2023-03-01T09:40:00;109.5;;;37.1;;
25443;SDS011;13368;52.346;4.678;2023-03-01T09:45:01;100.5;;;34.6;;
25443;SDS011;13368;52.346;4.678;2023-03-01T09:50:02;90.2;;;35.9;;
25443;SDS011;13368;52.346;4.678;2023-03-01T09:55:00;99.7;;;38.7;;
25443;SDS011;13368;52.346;4.678;2023-03-01T10:00:03;96.5;;;39.8;;
25443;SDS011;13368;52.346;4.678;2023-03-01T10:05:04;90.9;;;36.6;;
25443;SDS011;13368;52.346;4.678;2023-03-01T10:10:00;90.4;;;37.5;;
25443;SDS011;13368;52.346;4.678;2023-03-01T10:15:02;82.0;;;37.2;;
25443;SDS011;13368;52.346;4.678;2023-03-01T10:20:10;70.4;;;33.2;;
25443;SDS011;13368;52.346;4.678;2023-03-01T10:25:01;72.6;;;33.7;;
25443;SDS011;13368;52.346;4.678;2023-03-01T10:30:02;67.6;;;32.0;;
25443;SDS011;13368;52.346;4.678;2023-03-01T10:35:00;54.4;;;27.8;;
25443;SDS011;13368;52.346;4.678;2023-03-01T10:40:01;47.3;;;23.9;;
25443;SDS011;13368;52.346;4.678;2023-03-01T10:50:01;39.9;;;20.5;;
25443;SDS011;13368;52.346;4.678;2023-03-01T10:55:01;42.3;;;22.1;;
25443;SDS011;13368;52.346;4.678;2023-03-01T11:00:02;37.7;;;19.9;;
25443;SDS011;13368;52.346;4.678;2023-03-01T11:05:01;37.1;;;19.0;;
25443;SDS011;13368;52.346;4.678;2023-03-01T11:10:03;33.7;;;17.2;;
25443;SDS011;13368;52.346;4.678;2023-03-01T11:15:00;24.5;;;14.2;;
25443;SDS011;13368;52.346;4.678;2023-03-01T11:20:01;31.8;;;17.6;;
25443;SDS011;13368;52.346;4.678;2023-03-01T11:25:00;26.0;;;13.6;;
25443;SDS011;13368;52.346;4.678;2023-03-01T11:30:02;22.7;;;12.1;;
25443;SDS011;13368;52.346;4.678;2023-03-01T11:35:02;22.4;;;12.3;;
25443;SDS011;13368;52.346;4.678;2023-03-01T11:40:03;21.4;;;11.7;;
25443;SDS011;13368;52.346;4.678;2023-03-01T11:45:01;22.3;;;12.2;;
25443;SDS011;13368;52.346;4.678;2023-03-01T11:50:04;25.4;;;14.4;;
25443;SDS011;13368;52.346;4.678;2023-03-01T11:55:05;24.6;;;14.0;;
25443;SDS011;13368;52.346;4.678;2023-03-01T12:00:07;25.2;;;15.4;;
25443;SDS011;13368;52.346;4.678;2023-03-01T12:05:04;29.4;;;15.2;;
25443;SDS011;13368;52.346;4.678;2023-03-01T12:10:07;21.9;;;13.6;;
25443;SDS011;13368;52.346;4.678;2023-03-01T12:15:05;23.3;;;14.4;;
25443;SDS011;13368;52.346;4.678;2023-03-01T12:20:02;19.8;;;11.7;;
25443;SDS011;13368;52.346;4.678;2023-03-01T12:25:04;22.9;;;12.7;;
25443;SDS011;13368;52.346;4.678;2023-03-01T12:30:02;24.2;;;13.7;;
25443;SDS011;13368;52.346;4.678;2023-03-01T12:35:05;22.6;;;13.3;;
25443;SDS011;13368;52.346;4.678;2023-03-01T12:40:03;25.9;;;13.7;;
25443;SDS011;13368;52.346;4.678;2023-03-01T12:45:04;22.9;;;13.0;;
25443;SDS011;13368;52.346;4.678;2023-03-01T12:50:01;24.7;;;13.7;;
25443;SDS011;13368;52.346;4.678;2023-03-01T12:55:00;25.3;;;14.3;;
25443;SDS011;13368;52.346;4.678;2023-03-01T13:00:06;24.2;;;14.0;;
25443;SDS011;13368;52.346;4.678;2023-03-01T13:05:05;22.3;;;12.2;;
25443;SDS011;13368;52.346;4.678;2023-03-01T13:10:11;22.4;;;11.9;;
25443;SDS011;13368;52.346;4.678;2023-03-01T13:15:00;25.8;;;12.0;;
25443;SDS011;13368;52.346;4.678;2023-03-01T13:20:00;20.2;;;11.4;;
25443;SDS011;13368;52.346;4.678;2023-03-01T13:25:01;21.8;;;11.5;;
25443;SDS011;13368;52.346;4.678;2023-03-01T13:30:00;19.2;;;11.2;;
25443;SDS011;13368;52.346;4.678;2023-03-01T13:35:00;21.4;;;11.7;;
25443;SDS011;13368;52.346;4.678;2023-03-01T13:40:02;18.2;;;10.5;;
25443;SDS011;13368;52.346;4.678;2023-03-01T13:45:00;19.6;;;11.1;;
25443;SDS011;13368;52.346;4.678;2023-03-01T13:50:01;19.9;;;12.7;;
25443;SDS011;13368;52.346;4.678;2023-03-01T13:55:00;21.1;;;12.0;;
25443;SDS011;13368;52.346;4.678;2023-03-01T14:00:00;21.2;;;12.3;;
25443;SDS011;13368;52.346;4.678;2023-03-01T14:05:00;21.4;;;13.6;;
25443;SDS011;13368;52.346;4.678;2023-03-01T14:10:02;24.0;;;13.8;;
25443;SDS011;13368;52.346;4.678;2023-03-01T14:15:01;23.5;;;13.8;;
25443;SDS011;13368;52.346;4.678;2023-03-01T14:20:02;23.0;;;14.4;;
25443;SDS011;13368;52.346;4.678;2023-03-01T14:25:01;22.9;;;14.0;;
25443;SDS011;13368;52.346;4.678;2023-03-01T14:30:02;22.8;;;12.2;;
25443;SDS011;13368;52.346;4.678;2023-03-01T14:35:00;21.7;;;13.7;;
25443;SDS011;13368;52.346;4.678;2023-03-01T14:40:01;21.9;;;12.4;;
25443;SDS011;13368;52.346;4.678;2023-03-01T14:45:00;18.6;;;11.5;;
25443;SDS011;13368;52.346;4.678;2023-03-01T14:50:01;20.3;;;11.2;;
25443;SDS011;13368;52.346;4.678;2023-03-01T14:55:00;20.4;;;12.3;;
25443;SDS011;13368;52.346;4.678;2023-03-01T15:00:01;16.5;;;10.5;;
25443;SDS011;13368;52.346;4.678;2023-03-01T15:05:01;20.1;;;11.2;;
25443;SDS011;13368;52.346;4.678;2023-03-01T15:10:00;19.3;;;11.5;;
25443;SDS011;13368;52.346;4.678;2023-03-01T15:15:00;17.0;;;10.2;;
25443;SDS011;13368;52.346;4.678;2023-03-01T15:20:00;18.5;;;11.0;;
25443;SDS011;13368;52.346;4.678;2023-03-01T15:25:00;18.6;;;10.9;;
25443;SDS011;13368;52.346;4.678;2023-03-01T15:30:00;18.2;;;11.0;;
25443;SDS011;13368;52.346;4.678;2023-03-01T15:35:01;17.0;;;10.1;;
25443;SDS011;13368;52.346;4.678;2023-03-01T15:40:00;18.2;;;9.6;;
25443;SDS011;13368;52.346;4.678;2023-03-01T15:45:09;18.5;;;10.3;;
25443;SDS011;13368;52.346;4.678;2023-03-01T15:50:00;14.6;;;9.4;;
25443;SDS011;13368;52.346;4.678;2023-03-01T15:55:01;16.7;;;9.1;;
25443;SDS011;13368;52.346;4.678;2023-03-01T16:00:00;19.0;;;9.5;;
25443;SDS011;13368;52.346;4.678;2023-03-01T16:05:00;14.6;;;9.0;;
25443;SDS011;13368;52.346;4.678;2023-03-01T16:10:00;23.5;;;13.9;;
25443;SDS011;13368;52.346;4.678;2023-03-01T16:15:01;17.8;;;11.2;;
25443;SDS011;13368;52.346;4.678;2023-03-01T16:20:00;13.8;;;8.6;;
25443;SDS011;13368;52.346;4.678;2023-03-01T16:25:00;17.2;;;9.6;;
25443;SDS011;13368;52.346;4.678;2023-03-01T16:30:00;15.6;;;8.8;;
25443;SDS011;13368;52.346;4.678;2023-03-01T16:35:00;16.1;;;9.5;;
25443;SDS011;13368;52.346;4.678;2023-03-01T16:40:00;15.2;;;8.6;;
25443;SDS011;13368;52.346;4.678;2023-03-01T16:45:00;14.9;;;9.1;;
25443;SDS011;13368;52.346;4.678;2023-03-01T16:50:00;15.5;;;9.3;;
25443;SDS011;13368;52.346;4.678;2023-03-01T16:55:01;16.8;;;10.1;;
25443;SDS011;13368;52.346;4.678;2023-03-01T17:00:00;17.1;;;9.3;;
25443;SDS011;13368;52.346;4.678;2023-03-01T17:05:00;14.2;;;9.0;;
25443;SDS011;13368;52.346;4.678;2023-03-01T17:10:00;17.2;;;10.2;;
25443;SDS011;13368;52.346;4.678;2023-03-01T17:15:00;15.2;;;9.7;;
25443;SDS011;13368;52.346;4.678;2023-03-01T17:20:00;18.9;;;10.6;;
25443;SDS011;13368;52.346;4.678;2023-03-01T17:25:00;17.4;;;9.8;;
25443;SDS011;13368;52.346;4.678;2023-03-01T17:30:00;20.7;;;11.8;;
25443;SDS011;13368;52.346;4.678;2023-03-01T17:35:00;14.8;;;9.3;;
25443;SDS011;13368;52.346;4.678;2023-03-01T17:40:00;19.3;;;11.1;;
25443;SDS011;13368;52.346;4.678;2023-03-01T17:45:00;18.6;;;11.2;;
25443;SDS011;13368;52.346;4.678;2023-03-01T17:50:00;19.9;;;10.3;;
25443;SDS011;13368;52.346;4.678;2023-03-01T17:55:00;18.3;;;10.9;;
25443;SDS011;13368;52.346;4.678;2023-03-01T18:00:00;30.4;;;16.7;;
25443;SDS011;13368;52.346;4.678;2023-03-01T18:05:00;17.9;;;11.3;;
25443;SDS011;13368;52.346;4.678;2023-03-01T18:10:00;17.9;;;11.7;;
25443;SDS011;13368;52.346;4.678;2023-03-01T18:15:00;27.3;;;14.4;;
25443;SDS011;13368;52.346;4.678;2023-03-01T18:20:00;17.8;;;11.0;;
25443;SDS011;13368;52.346;4.678;2023-03-01T18:25:00;43.9;;;15.9;;
25443;SDS011;13368;52.346;4.678;2023-03-01T18:30:00;20.0;;;11.6;;
25443;SDS011;13368;52.346;4.678;2023-03-01T18:35:00;20.1;;;12.0;;
25443;SDS011;13368;52.346;4.678;2023-03-01T18:40:00;22.8;;;13.2;;
25443;SDS011;13368;52.346;4.678;2023-03-01T18:45:01;36.1;;;18.8;;
25443;SDS011;13368;52.346;4.678;2023-03-01T18:50:00;20.7;;;12.6;;
25443;SDS011;13368;52.346;4.678;2023-03-01T18:55:00;20.8;;;12.6;;
25443;SDS011;13368;52.346;4.678;2023-03-01T19:00:00;23.4;;;12.8;;
25443;SDS011;13368;52.346;4.678;2023-03-01T19:05:00;25.1;;;15.0;;
25443;SDS011;13368;52.346;4.678;2023-03-01T19:10:00;26.5;;;13.6;;
25443;SDS011;13368;52.346;4.678;2023-03-01T19:15:00;29.6;;;15.4;;
25443;SDS011;13368;52.346;4.678;2023-03-01T19:20:00;21.1;;;12.8;;
25443;SDS011;13368;52.346;4.678;2023-03-01T19:25:00;31.4;;;17.4;;
25443;SDS011;13368;52.346;4.678;2023-03-01T19:30:00;24.9;;;13.7;;
25443;SDS011;13368;52.346;4.678;2023-03-01T19:35:00;26.4;;;14.6;;
25443;SDS011;13368;52.346;4.678;2023-03-01T19:40:00;25.2;;;14.4;;
25443;SDS011;13368;52.346;4.678;2023-03-01T19:45:00;29.4;;;14.2;;
25443;SDS011;13368;52.346;4.678;2023-03-01T19:50:00;29.3;;;14.7;;
25443;SDS011;13368;52.346;4.678;2023-03-01T19:55:00;27.3;;;14.3;;
25443;SDS011;13368;52.346;4.678;2023-03-01T20:00:00;29.2;;;14.8;;
25443;SDS011;13368;52.346;4.678;2023-03-01T20:05:00;29.0;;;15.5;;
25443;SDS011;13368;52.346;4.678;2023-03-01T20:10:00;27.1;;;13.8;;
25443;SDS011;13368;52.346;4.678;2023-03-01T20:15:00;32.8;;;17.5;;
25443;SDS011;13368;52.346;4.678;2023-03-01T20:20:00;27.3;;;14.4;;
25443;SDS011;13368;52.346;4.678;2023-03-01T20:25:00;27.2;;;15.4;;
25443;SDS011;13368;52.346;4.678;2023-03-01T20:30:00;31.3;;;16.3;;
25443;SDS011;13368;52.346;4.678;2023-03-01T20:35:00;28.3;;;15.2;;
25443;SDS011;13368;52.346;4.678;2023-03-01T20:40:00;31.9;;;16.7;;
25443;SDS011;13368;52.346;4.678;2023-03-01T20:45:02;28.1;;;15.3;;
25443;SDS011;13368;52.346;4.678;2023-03-01T20:50:00;30.4;;;15.8;;
25443;SDS011;13368;52.346;4.678;2023-03-01T20:55:00;29.6;;;15.2;;
25443;SDS011;13368;52.346;4.678;2023-03-01T21:00:00;30.4;;;15.6;;
25443;SDS011;13368;52.346;4.678;2023-03-01T21:05:00;30.3;;;16.0;;
25443;SDS011;13368;52.346;4.678;2023-03-01T21:10:00;30.9;;;15.9;;
25443;SDS011;13368;52.346;4.678;2023-03-01T21:15:00;29.3;;;15.0;;
25443;SDS011;13368;52.346;4.678;2023-03-01T21:20:00;34.6;;;17.6;;
25443;SDS011;13368;52.346;4.678;2023-03-01T21:25:00;35.7;;;17.7;;
25443;SDS011;13368;52.346;4.678;2023-03-01T21:30:00;35.2;;;18.5;;
25443;SDS011;13368;52.346;4.678;2023-03-01T21:35:00;33.8;;;17.6;;
25443;SDS011;13368;52.346;4.678;2023-03-01T21:40:00;37.2;;;17.6;;
25443;SDS011;13368;52.346;4.678;2023-03-01T21:45:00;43.6;;;19.3;;
25443;SDS011;13368;52.346;4.678;2023-03-01T21:50:00;40.4;;;19.4;;
25443;SDS011;13368;52.346;4.678;2023-03-01T21:55:00;39.6;;;20.0;;
25443;SDS011;13368;52.346;4.678;2023-03-01T22:00:00;38.1;;;19.7;;
25443;SDS011;13368;52.346;4.678;2023-03-01T22:05:00;56.8;;;27.3;;
25443;SDS011;13368;52.346;4.678;2023-03-01T22:10:00;51.6;;;25.3;;
25443;SDS011;13368;52.346;4.678;2023-03-01T22:15:00;42.0;;;22.3;;
25443;SDS011;13368;52.346;4.678;2023-03-01T22:20:00;38.9;;;19.5;;
25443;SDS011;13368;52.346;4.678;2023-03-01T22:25:00;39.8;;;21.1;;
25443;SDS011;13368;52.346;4.678;2023-03-01T22:30:00;41.3;;;21.7;;
25443;SDS011;13368;52.346;4.678;2023-03-01T22:35:00;44.5;;;21.8;;
25443;SDS011;13368;52.346;4.678;2023-03-01T22:40:00;45.3;;;24.3;;
25443;SDS011;13368;52.346;4.678;2023-03-01T22:45:00;46.5;;;23.2;;
25443;SDS011;13368;52.346;4.678;2023-03-01T22:50:00;45.5;;;24.1;;
25443;SDS011;13368;52.346;4.678;2023-03-01T22:55:00;51.5;;;25.7;;
25443;SDS011;13368;52.346;4.678;2023-03-01T23:00:00;53.1;;;25.2;;
25443;SDS011;13368;52.346;4.678;2023-03-01T23:05:00;53.6;;;27.3;;
25443;SDS011;13368;52.346;4.678;2023-03-01T23:10:00;68.1;;;35.0;;
25443;SDS011;13368;52.346;4.678;2023-03-01T23:15:03;61.4;;;29.2;;
25443;SDS011;13368;52.346;4.678;2023-03-01T23:20:00;58.7;;;30.7;;
25443;SDS011;13368;52.346;4.678;2023-03-01T23:25:00;59.8;;;29.4;;
25443;SDS011;13368;52.346;4.678;2023-03-01T23:30:00;59.2;;;29.5;;
25443;SDS011;13368;52.346;4.678;2023-03-01T23:35:00;59.9;;;28.4;;
25443;SDS011;13368;52.346;4.678;2023-03-01T23:40:00;62.8;;;29.5;;
25443;SDS011;13368;52.346;4.678;2023-03-01T23:45:00;58.5;;;28.5;;
25443;SDS011;13368;52.346;4.678;2023-03-01T23:50:00;60.2;;;28.8;;
25443;SDS011;13368;52.346;4.678;2023-03-01T23:55:00;59.4;;;29.4;;
